sensor_id;sensor_type;location;lat;lon;timestamp;temperature;humidity
69747;DHT22;57018;50.278;19.134;2023-07-09T00:02:26;15.90;99.90
69747;DHT22;57018;50.278;19.134;2023-07-09T00:04:56;15.90;99.90
69747;DHT22;57018;50.278;19.134;2023-07-09T00:07:30;15.90;99.90
69747;DHT22;57018;50.278;19.134;2023-07-09T00:10:01;15.90;99.90
69747;DHT22;57018;50.278;19.134;2023-07-09T00:12:31;15.90;99.90
69747;DHT22;57018;50.278;19.134;2023-07-09T00:15:01;15.80;99.90
69747;DHT22;57018;50.278;19.134;2023-07-09T00:17:32;15.90;99.90
69747;DHT22;57018;50.278;19.134;2023-07-09T00:20:03;15.80;99.90
69747;DHT22;57018;50.278;19.134;2023-07-09T00:22:34;15.70;99.90
69747;DHT22;57018;50.278;19.134;2023-07-09T00:25:04;15.70;99.90
69747;DHT22;57018;50.278;19.134;2023-07-09T00:27:34;15.60;99.90
69747;DHT22;57018;50.278;19.134;2023-07-09T00:30:08;15.60;99.90
69747;DHT22;57018;50.278;19.134;2023-07-09T00:32:38;15.60;99.90
69747;DHT22;57018;50.278;19.134;2023-07-09T00:35:12;15.50;99.90
69747;DHT22;57018;50.278;19.134;2023-07-09T00:37:44;15.50;99.90
69747;DHT22;57018;50.278;19.134;2023-07-09T00:40:20;15.40;99.90
69747;DHT22;57018;50.278;19.134;2023-07-09T00:42:52;15.30;99.90
69747;DHT22;57018;50.278;19.134;2023-07-09T00:45:24;15.30;99.90
69747;DHT22;57018;50.278;19.134;2023-07-09T00:47:56;15.20;99.90
69747;DHT22;57018;50.278;19.134;2023-07-09T00:50:35;15.20;99.90
69747;DHT22;57018;50.278;19.134;2023-07-09T00:53:15;15.20;99.90
69747;DHT22;57018;50.278;19.134;2023-07-09T00:55:52;15.10;99.90
69747;DHT22;57018;50.278;19.134;2023-07-09T00:58:26;15.10;99.90
69747;DHT22;57018;50.278;19.134;2023-07-09T01:01:02;15.10;99.90
69747;DHT22;57018;50.278;19.134;2023-07-09T01:03:36;15.10;99.90
69747;DHT22;57018;50.278;19.134;2023-07-09T01:06:06;15.00;99.90
69747;DHT22;57018;50.278;19.134;2023-07-09T01:08:38;15.00;99.90
69747;DHT22;57018;50.278;19.134;2023-07-09T01:11:17;15.00;99.90
69747;DHT22;57018;50.278;19.134;2023-07-09T01:13:49;15.00;99.90
69747;DHT22;57018;50.278;19.134;2023-07-09T01:16:21;15.00;99.90
69747;DHT22;57018;50.278;19.134;2023-07-09T01:18:52;14.90;99.90
69747;DHT22;57018;50.278;19.134;2023-07-09T01:21:22;15.00;99.90
69747;DHT22;57018;50.278;19.134;2023-07-09T01:23:52;15.00;99.90
69747;DHT22;57018;50.278;19.134;2023-07-09T01:26:26;15.00;99.90
69747;DHT22;57018;50.278;19.134;2023-07-09T01:28:56;15.00;99.90
69747;DHT22;57018;50.278;19.134;2023-07-09T01:31:26;14.90;99.90
69747;DHT22;57018;50.278;19.134;2023-07-09T01:33:56;15.10;99.90
69747;DHT22;57018;50.278;19.134;2023-07-09T01:36:26;14.90;99.90
69747;DHT22;57018;50.278;19.134;2023-07-09T01:38:57;14.90;99.90
69747;DHT22;57018;50.278;19.134;2023-07-09T01:41:27;15.00;99.90
69747;DHT22;57018;50.278;19.134;2023-07-09T01:43:57;15.00;99.90
69747;DHT22;57018;50.278;19.134;2023-07-09T01:46:27;15.00;99.90
69747;DHT22;57018;50.278;19.134;2023-07-09T01:48:56;15.00;99.90
69747;DHT22;57018;50.278;19.134;2023-07-09T01:51:26;15.00;99.90
69747;DHT22;57018;50.278;19.134;2023-07-09T01:53:56;14.90;99.90
69747;DHT22;57018;50.278;19.134;2023-07-09T01:56:28;14.90;99.90
69747;DHT22;57018;50.278;19.134;2023-07-09T01:58:58;14.90;99.90
69747;DHT22;57018;50.278;19.134;2023-07-09T02:01:29;14.80;99.90
69747;DHT22;57018;50.278;19.134;2023-07-09T02:04:02;14.80;99.90
69747;DHT22;57018;50.278;19.134;2023-07-09T02:06:32;14.90;99.90
69747;DHT22;57018;50.278;19.134;2023-07-09T02:09:01;14.80;99.90
69747;DHT22;57018;50.278;19.134;2023-07-09T02:11:31;14.80;99.90
69747;DHT22;57018;50.278;19.134;2023-07-09T02:14:01;14.80;99.90
69747;DHT22;57018;50.278;19.134;2023-07-09T02:16:31;14.90;99.90
69747;DHT22;57018;50.278;19.134;2023-07-09T02:19:01;14.80;99.90
69747;DHT22;57018;50.278;19.134;2023-07-09T02:21:31;14.80;99.90
69747;DHT22;57018;50.278;19.134;2023-07-09T02:24:00;14.80;99.90
69747;DHT22;57018;50.278;19.134;2023-07-09T02:26:30;14.80;99.90
69747;DHT22;57018;50.278;19.134;2023-07-09T02:29:00;14.70;99.90
69747;DHT22;57018;50.278;19.134;2023-07-09T02:31:30;14.70;99.90
69747;DHT22;57018;50.278;19.134;2023-07-09T02:34:02;14.70;99.90
69747;DHT22;57018;50.278;19.134;2023-07-09T02:36:32;14.70;99.90
69747;DHT22;57018;50.278;19.134;2023-07-09T02:39:02;14.70;99.90
69747;DHT22;57018;50.278;19.134;2023-07-09T02:41:32;14.70;99.90
69747;DHT22;57018;50.278;19.134;2023-07-09T02:44:02;14.70;99.90
69747;DHT22;57018;50.278;19.134;2023-07-09T02:46:32;14.70;99.90
69747;DHT22;57018;50.278;19.134;2023-07-09T02:49:05;14.70;99.90
69747;DHT22;57018;50.278;19.134;2023-07-09T02:51:35;14.80;99.90
69747;DHT22;57018;50.278;19.134;2023-07-09T02:54:05;14.90;99.90
69747;DHT22;57018;50.278;19.134;2023-07-09T02:56:35;14.90;99.90
69747;DHT22;57018;50.278;19.134;2023-07-09T02:59:06;14.90;99.90
69747;DHT22;57018;50.278;19.134;2023-07-09T03:01:35;14.90;99.90
69747;DHT22;57018;50.278;19.134;2023-07-09T03:04:05;14.90;99.90
69747;DHT22;57018;50.278;19.134;2023-07-09T03:06:37;14.90;99.90
69747;DHT22;57018;50.278;19.134;2023-07-09T03:09:08;14.90;99.90
69747;DHT22;57018;50.278;19.134;2023-07-09T03:11:38;15.00;99.90
69747;DHT22;57018;50.278;19.134;2023-07-09T03:14:09;15.00;99.90
69747;DHT22;57018;50.278;19.134;2023-07-09T03:16:39;15.20;99.90
69747;DHT22;57018;50.278;19.134;2023-07-09T03:19:09;15.40;99.90
69747;DHT22;57018;50.278;19.134;2023-07-09T03:21:39;15.60;99.90
69747;DHT22;57018;50.278;19.134;2023-07-09T03:24:09;15.90;99.90
69747;DHT22;57018;50.278;19.134;2023-07-09T03:26:39;16.20;99.90
69747;DHT22;57018;50.278;19.134;2023-07-09T03:29:09;16.50;99.90
69747;DHT22;57018;50.278;19.134;2023-07-09T03:31:38;16.80;99.90
69747;DHT22;57018;50.278;19.134;2023-07-09T03:34:08;17.20;99.90
69747;DHT22;57018;50.278;19.134;2023-07-09T03:36:38;17.40;99.90
69747;DHT22;57018;50.278;19.134;2023-07-09T03:39:08;17.70;99.90
69747;DHT22;57018;50.278;19.134;2023-07-09T03:41:38;18.00;99.90
69747;DHT22;57018;50.278;19.134;2023-07-09T03:44:08;18.30;99.90
69747;DHT22;57018;50.278;19.134;2023-07-09T03:46:37;18.60;99.90
69747;DHT22;57018;50.278;19.134;2023-07-09T03:49:07;18.90;99.90
69747;DHT22;57018;50.278;19.134;2023-07-09T03:51:37;19.20;99.70
69747;DHT22;57018;50.278;19.134;2023-07-09T03:54:07;19.40;98.20
69747;DHT22;57018;50.278;19.134;2023-07-09T03:56:37;19.60;96.60
69747;DHT22;57018;50.278;19.134;2023-07-09T03:59:07;19.90;95.20
69747;DHT22;57018;50.278;19.134;2023-07-09T04:01:35;20.10;94.10
69747;DHT22;57018;50.278;19.134;2023-07-09T04:04:05;20.30;92.50
69747;DHT22;57018;50.278;19.134;2023-07-09T04:06:35;20.50;91.40
69747;DHT22;57018;50.278;19.134;2023-07-09T04:09:05;20.70;90.00
69747;DHT22;57018;50.278;19.134;2023-07-09T04:11:35;20.90;87.70
69747;DHT22;57018;50.278;19.134;2023-07-09T04:14:05;21.20;86.00
69747;DHT22;57018;50.278;19.134;2023-07-09T04:16:36;21.40;85.70
69747;DHT22;57018;50.278;19.134;2023-07-09T04:19:05;21.60;84.60
69747;DHT22;57018;50.278;19.134;2023-07-09T04:21:35;21.70;83.80
69747;DHT22;57018;50.278;19.134;2023-07-09T04:24:06;21.90;83.00
69747;DHT22;57018;50.278;19.134;2023-07-09T04:26:36;22.10;81.60
69747;DHT22;57018;50.278;19.134;2023-07-09T04:29:07;22.20;80.00
69747;DHT22;57018;50.278;19.134;2023-07-09T04:31:38;22.40;79.10
69747;DHT22;57018;50.278;19.134;2023-07-09T04:34:08;22.50;78.40
69747;DHT22;57018;50.278;19.134;2023-07-09T04:36:38;22.80;77.00
69747;DHT22;57018;50.278;19.134;2023-07-09T04:39:08;23.00;75.60
69747;DHT22;57018;50.278;19.134;2023-07-09T04:41:37;23.20;74.30
69747;DHT22;57018;50.278;19.134;2023-07-09T04:44:07;23.30;73.80
69747;DHT22;57018;50.278;19.134;2023-07-09T04:46:37;23.50;73.40
69747;DHT22;57018;50.278;19.134;2023-07-09T04:49:08;23.60;72.60
69747;DHT22;57018;50.278;19.134;2023-07-09T04:51:39;23.60;70.30
69747;DHT22;57018;50.278;19.134;2023-07-09T04:54:08;23.80;69.50
69747;DHT22;57018;50.278;19.134;2023-07-09T04:56:38;23.90;69.20
69747;DHT22;57018;50.278;19.134;2023-07-09T04:59:08;24.10;68.70
69747;DHT22;57018;50.278;19.134;2023-07-09T05:01:38;24.20;68.70
69747;DHT22;57018;50.278;19.134;2023-07-09T05:04:08;24.40;67.90
69747;DHT22;57018;50.278;19.134;2023-07-09T05:06:38;24.40;67.40
69747;DHT22;57018;50.278;19.134;2023-07-09T05:09:08;24.50;65.70
69747;DHT22;57018;50.278;19.134;2023-07-09T05:11:38;24.60;65.50
69747;DHT22;57018;50.278;19.134;2023-07-09T05:14:08;24.50;65.30
69747;DHT22;57018;50.278;19.134;2023-07-09T05:16:37;24.50;65.20
69747;DHT22;57018;50.278;19.134;2023-07-09T05:19:08;24.60;65.30
69747;DHT22;57018;50.278;19.134;2023-07-09T05:21:38;24.70;65.10
69747;DHT22;57018;50.278;19.134;2023-07-09T05:24:08;24.90;64.70
69747;DHT22;57018;50.278;19.134;2023-07-09T05:26:38;24.90;63.00
69747;DHT22;57018;50.278;19.134;2023-07-09T05:29:08;25.10;63.20
69747;DHT22;57018;50.278;19.134;2023-07-09T05:31:37;25.10;62.70
69747;DHT22;57018;50.278;19.134;2023-07-09T05:34:07;25.20;62.20
69747;DHT22;57018;50.278;19.134;2023-07-09T05:36:37;25.20;62.10
69747;DHT22;57018;50.278;19.134;2023-07-09T05:39:07;25.20;62.10
69747;DHT22;57018;50.278;19.134;2023-07-09T05:41:37;25.30;61.60
69747;DHT22;57018;50.278;19.134;2023-07-09T05:44:07;25.50;61.00
69747;DHT22;57018;50.278;19.134;2023-07-09T05:46:38;25.60;60.80
69747;DHT22;57018;50.278;19.134;2023-07-09T05:49:08;25.70;60.50
69747;DHT22;57018;50.278;19.134;2023-07-09T05:51:38;25.90;60.00
69747;DHT22;57018;50.278;19.134;2023-07-09T05:54:08;26.00;59.60
69747;DHT22;57018;50.278;19.134;2023-07-09T05:56:38;26.00;58.20
69747;DHT22;57018;50.278;19.134;2023-07-09T05:59:08;26.10;58.30
69747;DHT22;57018;50.278;19.134;2023-07-09T06:01:38;26.20;58.30
69747;DHT22;57018;50.278;19.134;2023-07-09T06:04:08;26.20;57.70
69747;DHT22;57018;50.278;19.134;2023-07-09T06:06:40;26.40;57.30
69747;DHT22;57018;50.278;19.134;2023-07-09T06:09:10;26.40;57.20
69747;DHT22;57018;50.278;19.134;2023-07-09T06:11:41;26.50;56.80
69747;DHT22;57018;50.278;19.134;2023-07-09T06:14:11;26.50;55.00
69747;DHT22;57018;50.278;19.134;2023-07-09T06:16:41;26.50;55.00
69747;DHT22;57018;50.278;19.134;2023-07-09T06:19:11;26.60;54.60
69747;DHT22;57018;50.278;19.134;2023-07-09T06:21:41;26.60;54.10
69747;DHT22;57018;50.278;19.134;2023-07-09T06:24:12;26.60;55.00
69747;DHT22;57018;50.278;19.134;2023-07-09T06:26:42;26.80;54.60
69747;DHT22;57018;50.278;19.134;2023-07-09T06:29:12;26.80;54.40
69747;DHT22;57018;50.278;19.134;2023-07-09T06:31:42;26.90;54.60
69747;DHT22;57018;50.278;19.134;2023-07-09T06:34:12;27.10;54.70
69747;DHT22;57018;50.278;19.134;2023-07-09T06:36:42;27.10;53.50
69747;DHT22;57018;50.278;19.134;2023-07-09T06:39:11;27.20;52.10
69747;DHT22;57018;50.278;19.134;2023-07-09T06:41:41;27.10;51.20
69747;DHT22;57018;50.278;19.134;2023-07-09T06:44:11;26.90;51.90
69747;DHT22;57018;50.278;19.134;2023-07-09T06:46:41;26.90;53.00
69747;DHT22;57018;50.278;19.134;2023-07-09T06:49:13;27.00;54.30
69747;DHT22;57018;50.278;19.134;2023-07-09T06:51:43;27.00;54.00
69747;DHT22;57018;50.278;19.134;2023-07-09T06:54:14;27.10;53.50
69747;DHT22;57018;50.278;19.134;2023-07-09T06:56:44;27.10;53.70
69747;DHT22;57018;50.278;19.134;2023-07-09T06:59:14;27.20;53.60
69747;DHT22;57018;50.278;19.134;2023-07-09T07:01:44;27.30;53.70
69747;DHT22;57018;50.278;19.134;2023-07-09T07:04:14;27.20;51.90
69747;DHT22;57018;50.278;19.134;2023-07-09T07:06:44;27.20;51.80
69747;DHT22;57018;50.278;19.134;2023-07-09T07:09:14;27.20;51.90
69747;DHT22;57018;50.278;19.134;2023-07-09T07:11:43;27.20;51.70
69747;DHT22;57018;50.278;19.134;2023-07-09T07:14:13;27.20;53.00
69747;DHT22;57018;50.278;19.134;2023-07-09T07:16:43;27.30;53.60
69747;DHT22;57018;50.278;19.134;2023-07-09T07:19:13;27.30;52.60
69747;DHT22;57018;50.278;19.134;2023-07-09T07:21:43;27.20;52.40
69747;DHT22;57018;50.278;19.134;2023-07-09T07:24:13;27.30;52.50
69747;DHT22;57018;50.278;19.134;2023-07-09T07:26:43;27.20;52.30
69747;DHT22;57018;50.278;19.134;2023-07-09T07:29:13;27.10;53.10
69747;DHT22;57018;50.278;19.134;2023-07-09T07:31:42;27.10;52.60
69747;DHT22;57018;50.278;19.134;2023-07-09T07:34:13;27.00;52.60
69747;DHT22;57018;50.278;19.134;2023-07-09T07:36:43;27.10;52.50
69747;DHT22;57018;50.278;19.134;2023-07-09T07:39:13;27.10;52.50
69747;DHT22;57018;50.278;19.134;2023-07-09T07:41:43;27.00;53.40
69747;DHT22;57018;50.278;19.134;2023-07-09T07:44:13;26.90;53.30
69747;DHT22;57018;50.278;19.134;2023-07-09T07:46:43;27.10;53.20
69747;DHT22;57018;50.278;19.134;2023-07-09T07:49:14;26.90;52.70
69747;DHT22;57018;50.278;19.134;2023-07-09T07:51:44;27.00;52.90
69747;DHT22;57018;50.278;19.134;2023-07-09T07:54:14;27.00;52.30
69747;DHT22;57018;50.278;19.134;2023-07-09T07:56:46;27.00;53.00
69747;DHT22;57018;50.278;19.134;2023-07-09T07:59:16;27.00;52.50
69747;DHT22;57018;50.278;19.134;2023-07-09T08:01:46;27.00;51.90
69747;DHT22;57018;50.278;19.134;2023-07-09T08:04:17;27.10;52.00
69747;DHT22;57018;50.278;19.134;2023-07-09T08:06:47;27.10;52.30
69747;DHT22;57018;50.278;19.134;2023-07-09T08:09:17;27.10;52.80
69747;DHT22;57018;50.278;19.134;2023-07-09T08:11:47;27.10;52.60
69747;DHT22;57018;50.278;19.134;2023-07-09T08:14:18;27.10;52.10
69747;DHT22;57018;50.278;19.134;2023-07-09T08:16:48;27.10;50.90
69747;DHT22;57018;50.278;19.134;2023-07-09T08:19:19;27.10;50.70
69747;DHT22;57018;50.278;19.134;2023-07-09T08:21:49;27.10;49.40
69747;DHT22;57018;50.278;19.134;2023-07-09T08:24:19;27.00;49.90
69747;DHT22;57018;50.278;19.134;2023-07-09T08:26:49;27.10;50.20
69747;DHT22;57018;50.278;19.134;2023-07-09T08:29:19;27.20;48.40
69747;DHT22;57018;50.278;19.134;2023-07-09T08:31:49;27.10;47.50
69747;DHT22;57018;50.278;19.134;2023-07-09T08:34:18;27.10;48.30
69747;DHT22;57018;50.278;19.134;2023-07-09T08:36:48;27.20;49.60
69747;DHT22;57018;50.278;19.134;2023-07-09T08:39:18;27.20;47.50
69747;DHT22;57018;50.278;19.134;2023-07-09T08:41:56;27.30;47.10
69747;DHT22;57018;50.278;19.134;2023-07-09T08:44:32;27.30;47.20
69747;DHT22;57018;50.278;19.134;2023-07-09T08:47:11;27.50;48.30
69747;DHT22;57018;50.278;19.134;2023-07-09T08:49:47;27.50;47.20
69747;DHT22;57018;50.278;19.134;2023-07-09T08:52:26;27.60;45.40
69747;DHT22;57018;50.278;19.134;2023-07-09T08:54:59;27.60;45.10
69747;DHT22;57018;50.278;19.134;2023-07-09T08:57:37;27.60;45.00
69747;DHT22;57018;50.278;19.134;2023-07-09T09:00:15;27.70;40.20
69747;DHT22;57018;50.278;19.134;2023-07-09T09:02:51;27.70;39.30
69747;DHT22;57018;50.278;19.134;2023-07-09T09:05:23;27.60;40.50
69747;DHT22;57018;50.278;19.134;2023-07-09T09:07:56;27.80;40.60
69747;DHT22;57018;50.278;19.134;2023-07-09T09:10:35;27.80;39.10
69747;DHT22;57018;50.278;19.134;2023-07-09T09:13:12;27.80;40.10
69747;DHT22;57018;50.278;19.134;2023-07-09T09:15:45;27.90;39.10
69747;DHT22;57018;50.278;19.134;2023-07-09T09:18:21;27.90;38.20
69747;DHT22;57018;50.278;19.134;2023-07-09T09:21:01;28.00;38.70
69747;DHT22;57018;50.278;19.134;2023-07-09T09:23:39;28.10;38.00
69747;DHT22;57018;50.278;19.134;2023-07-09T09:26:17;28.30;38.70
69747;DHT22;57018;50.278;19.134;2023-07-09T09:28:47;28.20;38.00
69747;DHT22;57018;50.278;19.134;2023-07-09T09:31:17;28.40;37.90
69747;DHT22;57018;50.278;19.134;2023-07-09T09:33:49;28.40;37.30
69747;DHT22;57018;50.278;19.134;2023-07-09T09:36:21;28.50;37.40
69747;DHT22;57018;50.278;19.134;2023-07-09T09:38:52;28.40;34.60
69747;DHT22;57018;50.278;19.134;2023-07-09T09:41:24;28.40;35.10
69747;DHT22;57018;50.278;19.134;2023-07-09T09:43:55;28.50;35.10
69747;DHT22;57018;50.278;19.134;2023-07-09T09:46:27;28.40;35.10
69747;DHT22;57018;50.278;19.134;2023-07-09T09:49:00;28.50;34.90
69747;DHT22;57018;50.278;19.134;2023-07-09T09:51:33;28.40;34.90
69747;DHT22;57018;50.278;19.134;2023-07-09T09:54:03;28.50;34.50
69747;DHT22;57018;50.278;19.134;2023-07-09T09:56:38;28.50;32.50
69747;DHT22;57018;50.278;19.134;2023-07-09T09:59:19;28.50;31.00
69747;DHT22;57018;50.278;19.134;2023-07-09T10:01:58;28.60;31.80
69747;DHT22;57018;50.278;19.134;2023-07-09T10:04:29;28.80;32.00
69747;DHT22;57018;50.278;19.134;2023-07-09T10:07:03;28.80;32.70
69747;DHT22;57018;50.278;19.134;2023-07-09T10:09:43;29.00;31.80
69747;DHT22;57018;50.278;19.134;2023-07-09T10:12:35;29.20;32.10
69747;DHT22;57018;50.278;19.134;2023-07-09T10:15:16;29.40;31.20
69747;DHT22;57018;50.278;19.134;2023-07-09T10:17:57;29.40;30.80
69747;DHT22;57018;50.278;19.134;2023-07-09T10:20:34;29.40;30.20
69747;DHT22;57018;50.278;19.134;2023-07-09T10:23:17;29.40;29.70
69747;DHT22;57018;50.278;19.134;2023-07-09T10:25:55;29.50;29.50
69747;DHT22;57018;50.278;19.134;2023-07-09T10:28:50;29.70;28.90
69747;DHT22;57018;50.278;19.134;2023-07-09T10:31:32;29.80;28.60
69747;DHT22;57018;50.278;19.134;2023-07-09T10:34:16;29.90;29.00
69747;DHT22;57018;50.278;19.134;2023-07-09T10:37:07;29.90;29.00
69747;DHT22;57018;50.278;19.134;2023-07-09T10:39:40;30.00;29.60
69747;DHT22;57018;50.278;19.134;2023-07-09T10:42:21;30.20;29.50
69747;DHT22;57018;50.278;19.134;2023-07-09T10:44:57;30.30;28.60
69747;DHT22;57018;50.278;19.134;2023-07-09T10:47:33;30.40;28.60
69747;DHT22;57018;50.278;19.134;2023-07-09T10:50:09;30.30;28.50
69747;DHT22;57018;50.278;19.134;2023-07-09T10:52:45;30.20;29.20
69747;DHT22;57018;50.278;19.134;2023-07-09T10:55:21;30.10;29.30
69747;DHT22;57018;50.278;19.134;2023-07-09T10:57:58;30.00;29.90
69747;DHT22;57018;50.278;19.134;2023-07-09T11:00:34;30.00;30.20
69747;DHT22;57018;50.278;19.134;2023-07-09T11:03:09;30.00;29.30
69747;DHT22;57018;50.278;19.134;2023-07-09T11:05:43;30.00;28.70
69747;DHT22;57018;50.278;19.134;2023-07-09T11:08:15;29.90;28.60
69747;DHT22;57018;50.278;19.134;2023-07-09T11:10:51;30.00;29.00
69747;DHT22;57018;50.278;19.134;2023-07-09T11:13:26;30.00;29.30
69747;DHT22;57018;50.278;19.134;2023-07-09T11:15:58;30.00;29.60
69747;DHT22;57018;50.278;19.134;2023-07-09T11:18:34;30.20;29.70
69747;DHT22;57018;50.278;19.134;2023-07-09T11:21:07;30.30;29.10
69747;DHT22;57018;50.278;19.134;2023-07-09T11:23:46;30.50;29.00
69747;DHT22;57018;50.278;19.134;2023-07-09T11:26:24;30.90;29.00
69747;DHT22;57018;50.278;19.134;2023-07-09T11:29:05;31.20;28.60
69747;DHT22;57018;50.278;19.134;2023-07-09T11:31:40;31.60;27.80
69747;DHT22;57018;50.278;19.134;2023-07-09T11:34:19;31.70;27.70
69747;DHT22;57018;50.278;19.134;2023-07-09T11:36:52;31.80;27.90
69747;DHT22;57018;50.278;19.134;2023-07-09T11:39:30;31.50;28.50
69747;DHT22;57018;50.278;19.134;2023-07-09T11:42:00;31.30;28.40
69747;DHT22;57018;50.278;19.134;2023-07-09T11:44:32;30.90;28.50
69747;DHT22;57018;50.278;19.134;2023-07-09T11:47:17;30.80;28.00
69747;DHT22;57018;50.278;19.134;2023-07-09T11:49:52;30.70;28.50
69747;DHT22;57018;50.278;19.134;2023-07-09T11:52:31;30.70;27.00
69747;DHT22;57018;50.278;19.134;2023-07-09T11:55:16;30.50;27.20
69747;DHT22;57018;50.278;19.134;2023-07-09T11:57:50;30.30;28.50
69747;DHT22;57018;50.278;19.134;2023-07-09T12:00:22;30.10;29.20
69747;DHT22;57018;50.278;19.134;2023-07-09T12:02:52;30.00;29.60
69747;DHT22;57018;50.278;19.134;2023-07-09T12:05:25;30.10;29.80
69747;DHT22;57018;50.278;19.134;2023-07-09T12:07:56;30.00;28.30
69747;DHT22;57018;50.278;19.134;2023-07-09T12:10:33;30.00;28.40
69747;DHT22;57018;50.278;19.134;2023-07-09T12:13:03;30.10;28.50
69747;DHT22;57018;50.278;19.134;2023-07-09T12:15:33;30.30;27.80
69747;DHT22;57018;50.278;19.134;2023-07-09T12:18:09;30.50;28.20
69747;DHT22;57018;50.278;19.134;2023-07-09T12:20:40;30.70;28.40
69747;DHT22;57018;50.278;19.134;2023-07-09T12:23:22;30.90;28.70
69747;DHT22;57018;50.278;19.134;2023-07-09T12:25:53;31.10;28.30
69747;DHT22;57018;50.278;19.134;2023-07-09T12:28:26;31.40;27.50
69747;DHT22;57018;50.278;19.134;2023-07-09T12:30:57;31.40;26.80
69747;DHT22;57018;50.278;19.134;2023-07-09T12:33:28;31.60;26.80
69747;DHT22;57018;50.278;19.134;2023-07-09T12:35:59;31.70;27.20
69747;DHT22;57018;50.278;19.134;2023-07-09T12:38:32;31.70;25.70
69747;DHT22;57018;50.278;19.134;2023-07-09T12:41:19;31.50;26.40
69747;DHT22;57018;50.278;19.134;2023-07-09T12:43:49;31.60;26.60
69747;DHT22;57018;50.278;19.134;2023-07-09T12:46:21;31.60;27.20
69747;DHT22;57018;50.278;19.134;2023-07-09T12:48:51;31.60;27.40
69747;DHT22;57018;50.278;19.134;2023-07-09T12:51:23;31.50;26.50
69747;DHT22;57018;50.278;19.134;2023-07-09T12:54:09;31.50;26.70
69747;DHT22;57018;50.278;19.134;2023-07-09T12:56:41;31.50;26.20
69747;DHT22;57018;50.278;19.134;2023-07-09T12:59:18;31.40;26.40
69747;DHT22;57018;50.278;19.134;2023-07-09T13:01:59;31.40;26.80
69747;DHT22;57018;50.278;19.134;2023-07-09T13:04:32;31.40;26.60
69747;DHT22;57018;50.278;19.134;2023-07-09T13:07:04;31.40;26.80
69747;DHT22;57018;50.278;19.134;2023-07-09T13:09:35;31.50;26.90
69747;DHT22;57018;50.278;19.134;2023-07-09T13:12:06;31.50;26.40
69747;DHT22;57018;50.278;19.134;2023-07-09T13:14:36;31.50;26.50
69747;DHT22;57018;50.278;19.134;2023-07-09T13:17:08;31.50;26.50
69747;DHT22;57018;50.278;19.134;2023-07-09T13:19:38;31.60;26.50
69747;DHT22;57018;50.278;19.134;2023-07-09T13:22:15;31.80;27.20
69747;DHT22;57018;50.278;19.134;2023-07-09T13:24:46;31.90;26.00
69747;DHT22;57018;50.278;19.134;2023-07-09T13:27:18;32.10;25.90
69747;DHT22;57018;50.278;19.134;2023-07-09T13:29:48;32.00;25.50
69747;DHT22;57018;50.278;19.134;2023-07-09T13:32:18;31.90;25.80
69747;DHT22;57018;50.278;19.134;2023-07-09T13:34:48;31.80;25.80
69747;DHT22;57018;50.278;19.134;2023-07-09T13:37:18;31.70;25.90
69747;DHT22;57018;50.278;19.134;2023-07-09T13:39:47;31.70;26.10
69747;DHT22;57018;50.278;19.134;2023-07-09T13:42:18;31.60;25.90
69747;DHT22;57018;50.278;19.134;2023-07-09T13:44:49;31.60;25.00
69747;DHT22;57018;50.278;19.134;2023-07-09T13:47:20;31.70;25.70
69747;DHT22;57018;50.278;19.134;2023-07-09T13:49:49;31.70;25.90
69747;DHT22;57018;50.278;19.134;2023-07-09T13:52:22;31.80;25.70
69747;DHT22;57018;50.278;19.134;2023-07-09T13:54:54;31.70;25.80
69747;DHT22;57018;50.278;19.134;2023-07-09T13:57:23;31.70;25.80
69747;DHT22;57018;50.278;19.134;2023-07-09T13:59:54;31.70;25.50
69747;DHT22;57018;50.278;19.134;2023-07-09T14:02:27;31.60;25.10
69747;DHT22;57018;50.278;19.134;2023-07-09T14:05:01;31.60;25.00
69747;DHT22;57018;50.278;19.134;2023-07-09T14:07:34;31.50;24.80
69747;DHT22;57018;50.278;19.134;2023-07-09T14:10:06;31.40;25.30
69747;DHT22;57018;50.278;19.134;2023-07-09T14:12:40;31.30;25.00
69747;DHT22;57018;50.278;19.134;2023-07-09T14:15:15;31.20;25.20
69747;DHT22;57018;50.278;19.134;2023-07-09T14:17:45;31.20;25.10
69747;DHT22;57018;50.278;19.134;2023-07-09T14:20:17;31.00;25.60
69747;DHT22;57018;50.278;19.134;2023-07-09T14:22:50;31.00;25.70
69747;DHT22;57018;50.278;19.134;2023-07-09T14:25:22;31.10;25.90
69747;DHT22;57018;50.278;19.134;2023-07-09T14:27:53;31.20;25.80
69747;DHT22;57018;50.278;19.134;2023-07-09T14:30:25;31.20;25.60
69747;DHT22;57018;50.278;19.134;2023-07-09T14:32:55;31.20;25.10
69747;DHT22;57018;50.278;19.134;2023-07-09T14:35:26;31.00;25.20
69747;DHT22;57018;50.278;19.134;2023-07-09T14:37:57;31.10;25.40
69747;DHT22;57018;50.278;19.134;2023-07-09T14:40:29;30.90;24.70
69747;DHT22;57018;50.278;19.134;2023-07-09T14:42:59;30.90;25.20
69747;DHT22;57018;50.278;19.134;2023-07-09T14:45:31;30.90;24.80
69747;DHT22;57018;50.278;19.134;2023-07-09T14:48:01;31.10;25.00
69747;DHT22;57018;50.278;19.134;2023-07-09T14:50:32;31.20;25.10
69747;DHT22;57018;50.278;19.134;2023-07-09T14:53:02;31.40;24.50
69747;DHT22;57018;50.278;19.134;2023-07-09T14:55:32;31.50;24.50
69747;DHT22;57018;50.278;19.134;2023-07-09T14:58:02;31.70;24.10
69747;DHT22;57018;50.278;19.134;2023-07-09T15:00:34;31.60;24.10
69747;DHT22;57018;50.278;19.134;2023-07-09T15:03:07;31.40;23.80
69747;DHT22;57018;50.278;19.134;2023-07-09T15:05:38;31.30;24.00
69747;DHT22;57018;50.278;19.134;2023-07-09T15:08:15;31.30;23.60
69747;DHT22;57018;50.278;19.134;2023-07-09T15:10:45;31.20;23.90
69747;DHT22;57018;50.278;19.134;2023-07-09T15:13:27;31.20;24.70
69747;DHT22;57018;50.278;19.134;2023-07-09T15:15:58;31.10;24.80
69747;DHT22;57018;50.278;19.134;2023-07-09T15:18:29;31.00;24.70
69747;DHT22;57018;50.278;19.134;2023-07-09T15:21:02;30.70;25.10
69747;DHT22;57018;50.278;19.134;2023-07-09T15:23:45;30.50;24.80
69747;DHT22;57018;50.278;19.134;2023-07-09T15:26:15;30.40;25.60
69747;DHT22;57018;50.278;19.134;2023-07-09T15:28:45;30.40;25.20
69747;DHT22;57018;50.278;19.134;2023-07-09T15:31:18;30.20;24.80
69747;DHT22;57018;50.278;19.134;2023-07-09T15:33:48;30.10;24.60
69747;DHT22;57018;50.278;19.134;2023-07-09T15:36:18;30.00;25.30
69747;DHT22;57018;50.278;19.134;2023-07-09T15:38:48;30.10;24.70
69747;DHT22;57018;50.278;19.134;2023-07-09T15:41:18;30.00;24.10
69747;DHT22;57018;50.278;19.134;2023-07-09T15:43:48;30.00;23.70
69747;DHT22;57018;50.278;19.134;2023-07-09T15:46:21;29.90;23.70